Time;durP1;ratioP1;P1;durP2;ratioP2;P2;SDS_P1;SDS_P2;PMS_P1;PMS_P2;Temp;Humidity;BMP_temperature;BMP_pressure;BME280_temperature;BME280_humidity;BME280_pressure;Samples;Min_cycle;Max_cycle;Signal;HPM_P1;HPM_P2
2022/01/02 06:08:52;;;;;;;;;;;;;;;6.24;100.00;99265.63;4787413;29;20054;-68
2022/01/02 06:11:38;;;;;;;;;;;;;;;6.28;100.00;99266.59;4808212;29;19955;-68
2022/01/02 06:14:24;;;;;;;;;;;;;;;6.25;100.00;99272.81;4822555;29;19955;-68
2022/01/02 06:17:10;;;;;;;;;;;;;;;6.25;100.00;99264.50;4830194;29;19955;-68
2022/01/02 06:19:56;;;;;;;;;;;;;;;6.19;100.00;99265.88;4808192;29;19951;-68
2022/01/02 06:22:42;;;;;;;;;;;;;;;6.18;100.00;99265.06;4814741;29;19949;-68
2022/01/02 06:25:28;;;;;;;;;;;;;;;6.20;100.00;99265.53;4814850;29;19971;-68
2022/01/02 06:28:14;;;;;;;;;;;;;;;6.18;100.00;99259.53;4797477;29;19952;-68
2022/01/02 06:30:59;;;;;;;;;;;;;;;6.14;100.00;99261.34;4811808;29;19958;-68
2022/01/02 06:33:46;;;;;;;;;;;;;;;6.13;100.00;99261.72;4822676;29;19957;-68
2022/01/02 06:36:32;;;;;;;;;;;;;;;6.12;100.00;99262.84;4823311;29;19950;-68
2022/01/02 06:39:18;;;;;;;;;;;;;;;6.13;100.00;99267.25;4808966;29;19954;-68
2022/01/02 06:42:04;;;;;;;;;;;;;;;6.12;100.00;99263.66;4818063;29;19959;-68
2022/01/02 06:44:52;;;;;;;;;;;;;;;6.11;100.00;99267.63;4815939;29;19953;-68
2022/01/02 06:47:39;;;;;;;;;;;;;;;6.07;100.00;99272.22;4808824;29;20255;-68
2022/01/02 06:50:24;;;;;;;;;;;;;;;6.06;100.00;99275.34;4808981;29;20270;-68
2022/01/02 06:53:11;;;;;;;;;;;;;;;6.04;100.00;99272.91;4815185;29;20367;-68
2022/01/02 06:55:56;;;;;;;;;;;;;;;5.96;100.00;99273.84;4826461;29;19955;-68
2022/01/02 06:58:42;;;;;;;;;;;;;;;5.90;100.00;99276.00;4814318;29;20630;-68
2022/01/02 07:01:29;;;;;;;;;;;;;;;5.88;100.00;99278.31;4814221;29;19947;-68
2022/01/02 07:04:15;;;;;;;;;;;;;;;5.88;100.00;99271.94;4813992;29;19953;-68
2022/01/02 07:07:02;;;;;;;;;;;;;;;5.86;100.00;99283.41;4810693;29;19979;-68
2022/01/02 07:09:47;;;;;;;;;;;;;;;5.87;100.00;99286.97;4810362;29;19948;-68
2022/01/02 07:12:34;;;;;;;;;;;;;;;5.84;100.00;99284.88;4795777;29;19955;-68
2022/01/02 07:15:20;;;;;;;;;;;;;;;5.84;100.00;99284.88;4814084;29;20346;-68
2022/01/02 07:18:05;;;;;;;;;;;;;;;5.86;100.00;99291.75;4810748;29;19956;-68
2022/01/02 07:20:51;;;;;;;;;;;;;;;5.97;100.00;99286.53;4809004;29;19958;-68
2022/01/02 07:23:37;;;;;;;;;;;;;;;6.01;100.00;99276.38;4812805;29;19947;-68
2022/01/02 07:26:23;;;;;;;;;;;;;;;6.08;100.00;99282.19;4814262;29;19967;-68
2022/01/02 07:29:09;;;;;;;;;;;;;;;6.11;100.00;99280.69;4809368;29;19957;-68
2022/01/02 07:31:55;;;;;;;;;;;;;;;6.35;100.00;99283.50;4812731;29;19962;-68
2022/01/02 07:34:42;;;;;;;;;;;;;;;7.01;100.00;99284.84;4811185;29;19949;-68
2022/01/02 07:37:27;;;;;;;;;;;;;;;7.99;100.00;99291.66;4809514;29;19947;-68
2022/01/02 07:40:13;;;;;;;;;;;;;;;9.10;100.00;99288.47;4812741;29;19955;-68
2022/01/02 07:42:59;;;;;;;;;;;;;;;10.53;100.00;99284.22;4807694;29;19954;-68
2022/01/02 07:45:49;;;;;;;;;;;;;;;11.70;100.00;99285.97;4813318;29;19963;-68
2022/01/02 07:48:35;;;;;;;;;;;;;;;12.72;100.00;99305.88;4812588;29;20265;-68
2022/01/02 07:51:21;;;;;;;;;;;;;;;13.78;100.00;99302.59;4819199;29;19971;-68
2022/01/02 07:54:06;;;;;;;;;;;;;;;14.01;100.00;99302.28;4817824;29;19954;-69
2022/01/02 07:56:52;;;;;;;;;;;;;;;15.94;100.00;99295.03;4822766;29;20345;-69
2022/01/02 07:59:38;;;;;;;;;;;;;;;17.92;100.00;99299.91;4830774;29;19950;-69
2022/01/02 08:02:36;;;;;;;;;;;;;;;20.02;96.90;99298.91;4822307;29;19952;-69
2022/01/02 08:05:22;;;;;;;;;;;;;;;21.00;81.60;99310.09;4832167;29;19944;-69
2022/01/02 08:08:08;;;;;;;;;;;;;;;22.87;72.66;99311.34;4818029;29;19965;-67
2022/01/02 08:11:10;;;;;;;;;;;;;;;24.24;64.70;99324.13;4819673;29;19951;-67
2022/01/02 08:13:55;;;;;;;;;;;;;;;25.73;56.44;99319.72;4826624;29;19943;-66
2022/01/02 08:16:42;;;;;;;;;;;;;;;26.73;49.50;99321.25;4830937;29;19943;-67
2022/01/02 08:19:28;;;;;;;;;;;;;;;27.04;48.29;99320.22;4819589;29;19952;-67
2022/01/02 08:22:14;;;;;;;;;;;;;;;27.01;47.01;99324.84;4818771;29;19946;-66
2022/01/02 08:25:00;;;;;;;;;;;;;;;26.98;46.35;99319.28;4820772;29;19952;-67
2022/01/02 08:27:46;;;;;;;;;;;;;;;26.56;48.00;99320.03;4821525;29;20249;-66
2022/01/02 08:30:32;;;;;;;;;;;;;;;25.53;47.46;99322.25;4817916;29;19947;-67
2022/01/02 08:33:18;;;;;;;;;;;;;;;23.46;54.07;99313.47;4824127;29;19932;-66
2022/01/02 08:36:05;;;;;;;;;;;;;;;22.24;60.89;99304.72;4825191;29;19929;-69
2022/01/02 08:38:51;;;;;;;;;;;;;;;21.34;nan;99301.13;4806790;29;19929;-69
2022/01/02 08:41:36;;;;;;;;;;;;;;;21.19;64.01;99306.41;4813010;29;19936;-69
2022/01/02 08:44:23;;;;;;;;;;;;;;;20.62;63.96;99298.41;4811130;29;20230;-68
2022/01/02 08:47:09;;;;;;;;;;;;;;;20.58;65.93;99305.41;4827713;29;19929;-68
2022/01/02 08:49:55;;;;;;;;;;;;;;;20.18;68.88;99298.97;4827416;29;19940;-69
2022/01/02 08:52:41;;;;;;;;;;;;;;;19.42;72.24;99300.88;4812284;29;19929;-68
2022/01/02 08:55:28;;;;;;;;;;;;;;;18.31;77.10;99299.38;4811342;29;20295;-68
2022/01/02 08:58:13;;;;;;;;;;;;;;;16.57;82.64;99296.72;4828751;29;20226;-68
2022/01/02 09:01:00;;;;;;;;;;;;;;;16.23;89.80;99293.69;4831137;29;19933;-69
2022/01/02 09:03:46;;;;;;;;;;;;;;;15.37;95.07;99287.94;4831263;29;19937;-68
2022/01/02 09:06:32;;;;;;;;;;;;;;;14.61;99.03;99285.56;4831090;29;19929;-69
2022/01/02 09:09:18;;;;;;;;;;;;;;;14.26;100.00;99303.16;4824501;29;20433;-68
2022/01/02 09:12:04;;;;;;;;;;;;;;;13.79;100.00;99295.75;4793346;29;19935;-68
2022/01/02 09:14:50;;;;;;;;;;;;;;;13.60;100.00;99296.09;4789022;29;19934;-68
2022/01/02 09:17:36;;;;;;;;;;;;;;;13.61;100.00;99288.47;4807107;29;19941;-68
2022/01/02 09:20:21;;;;;;;;;;;;;;;13.18;100.00;99305.06;4815808;29;20405;-68
2022/01/02 09:23:08;;;;;;;;;;;;;;;13.08;100.00;99300.16;4828543;29;19933;-68
2022/01/02 09:25:54;;;;;;;;;;;;;;;12.96;100.00;99302.47;4824915;29;19929;-68
2022/01/02 09:28:41;;;;;;;;;;;;;;;13.03;100.00;99303.31;4798519;29;19933;-68
2022/01/02 09:31:27;;;;;;;;;;;;;;;12.94;100.00;99299.22;4798651;29;20223;-68
2022/01/02 09:34:14;;;;;;;;;;;;;;;12.88;100.00;99290.38;4792301;30;19930;-68
2022/01/02 09:37:01;;;;;;;;;;;;;;;12.84;100.00;99295.16;4792406;30;19933;-68
2022/01/02 09:39:47;;;;;;;;;;;;;;;12.64;100.00;99304.22;4798270;29;19933;-68
2022/01/02 09:42:34;;;;;;;;;;;;;;;12.76;100.00;99301.09;4792210;30;19934;-68
2022/01/02 09:45:21;;;;;;;;;;;;;;;12.85;100.00;99298.75;4822500;29;19933;-68
2022/01/02 09:48:07;;;;;;;;;;;;;;;12.67;100.00;99297.78;4812584;29;19932;-68
2022/01/02 09:50:53;;;;;;;;;;;;;;;12.80;100.00;99294.31;4828981;29;19939;-68
2022/01/02 09:53:40;;;;;;;;;;;;;;;12.80;100.00;99285.91;4821471;29;19933;-68
2022/01/02 09:56:08;;;;;;;;;;;;;;;12.94;100.00;99276.78;4814714;29;19937;-68
2022/01/02 09:58:36;;;;;;;;;;;;;;;13.12;100.00;99272.13;4811444;29;19944;-68
2022/01/02 10:01:04;;;;;;;;;;;;;;;13.23;100.00;99275.00;4814546;29;19940;-68
2022/01/02 10:03:42;;;;;;;;;;;;;;;13.26;100.00;99275.03;4813662;29;19947;-68
2022/01/02 10:06:09;;;;;;;;;;;;;;;13.34;100.00;99273.88;4804890;29;19940;-68
2022/01/02 10:08:37;;;;;;;;;;;;;;;13.40;100.00;99265.88;4814095;29;19940;-68
2022/01/02 10:11:07;;;;;;;;;;;;;;;13.62;100.00;99251.53;4805576;29;19933;-68
2022/01/02 10:13:37;;;;;;;;;;;;;;;13.71;100.00;99251.16;4816749;29;19933;-68
2022/01/02 10:16:17;;;;;;;;;;;;;;;13.88;100.00;99253.25;4826201;29;19932;-68
2022/01/02 10:18:45;;;;;;;;;;;;;;;14.07;100.00;99243.63;4815007;29;19932;-68
2022/01/02 10:21:25;;;;;;;;;;;;;;;14.30;100.00;99239.31;4824140;29;19929;-68
2022/01/02 10:24:08;;;;;;;;;;;;;;;14.30;100.00;99242.13;4814265;29;19929;-68
2022/01/02 10:26:36;;;;;;;;;;;;;;;14.59;100.00;99248.56;4810591;29;19944;-69
2022/01/02 10:29:12;;;;;;;;;;;;;;;14.59;100.00;99237.31;4811293;29;19937;-68
2022/01/02 10:31:40;;;;;;;;;;;;;;;14.49;100.00;99240.94;4824922;29;20618;-68
2022/01/02 10:34:08;;;;;;;;;;;;;;;14.24;100.00;99240.06;4821917;29;19928;-69
2022/01/02 10:36:37;;;;;;;;;;;;;;;14.08;100.00;99242.44;4827610;29;19937;-69
2022/01/02 10:39:12;;;;;;;;;;;;;;;13.76;100.00;99225.50;4821312;29;19952;-69
2022/01/02 10:41:47;;;;;;;;;;;;;;;13.80;100.00;99221.47;4826560;29;20353;-69
2022/01/02 10:44:31;;;;;;;;;;;;;;;13.74;100.00;99214.63;4822561;29;19933;-69
2022/01/02 10:47:18;;;;;;;;;;;;;;;13.88;100.00;99211.06;4820362;29;20234;-68
2022/01/02 10:49:46;;;;;;;;;;;;;;;13.97;100.00;99208.66;4817654;29;19929;-69
2022/01/02 10:52:28;;;;;;;;;;;;;;;14.05;100.00;99210.31;4823258;29;20008;-69
2022/01/02 10:54:57;;;;;;;;;;;;;;;14.15;100.00;99203.09;4823026;29;19940;-68
2022/01/02 10:57:27;;;;;;;;;;;;;;;14.02;100.00;99201.84;4821479;29;19932;-68
2022/01/02 10:59:55;;;;;;;;;;;;;;;13.92;100.00;99202.63;4826635;29;19940;-68
2022/01/02 11:02:24;;;;;;;;;;;;;;;13.99;100.00;99194.19;4812634;29;19941;-68
2022/01/02 11:04:54;;;;;;;;;;;;;;;14.13;100.00;99191.44;4823295;29;20352;-68
2022/01/02 11:07:23;;;;;;;;;;;;;;;14.11;100.00;99185.41;4811702;29;19933;-69
2022/01/02 11:09:52;;;;;;;;;;;;;;;14.06;100.00;99180.94;4802380;29;19937;-69
2022/01/02 11:12:21;;;;;;;;;;;;;;;13.86;100.00;99181.75;4827458;29;19937;-69
2022/01/02 11:14:49;;;;;;;;;;;;;;;13.65;100.00;99169.22;4819045;29;19936;-69
2022/01/02 11:17:17;;;;;;;;;;;;;;;13.34;100.00;99164.31;4826427;29;20365;-69
2022/01/02 11:19:45;;;;;;;;;;;;;;;13.13;100.00;99165.00;4823190;29;19940;-69
2022/01/02 11:22:17;;;;;;;;;;;;;;;12.96;100.00;99162.88;4811631;29;19929;-68
2022/01/02 11:24:48;;;;;;;;;;;;;;;12.77;100.00;99159.56;4824455;29;19960;-68
2022/01/02 11:27:21;;;;;;;;;;;;;;;12.79;100.00;99162.81;4825954;29;19940;-68
2022/01/02 11:29:49;;;;;;;;;;;;;;;12.77;100.00;99163.19;4825155;29;19933;-68
2022/01/02 11:32:24;;;;;;;;;;;;;;;12.82;100.00;99151.59;4817212;29;19933;-68
2022/01/02 11:34:51;;;;;;;;;;;;;;;12.82;100.00;99145.97;4815913;29;20311;-69
2022/01/02 11:37:21;;;;;;;;;;;;;;;12.73;100.00;99150.34;4810051;29;19960;-69
2022/01/02 11:40:02;;;;;;;;;;;;;;;12.62;100.00;99153.06;4812707;29;20207;-69
2022/01/02 11:42:36;;;;;;;;;;;;;;;12.34;100.00;99141.66;4805100;29;20308;-68
2022/01/02 11:45:05;;;;;;;;;;;;;;;12.39;100.00;99147.72;4822828;29;20214;-68
2022/01/02 11:47:48;;;;;;;;;;;;;;;12.35;100.00;99146.84;4821201;29;19933;-68
2022/01/02 11:50:31;;;;;;;;;;;;;;;12.29;100.00;99142.81;4817747;29;20334;-68
2022/01/02 11:53:13;;;;;;;;;;;;;;;12.31;100.00;99134.81;4812672;29;19933;-68
2022/01/02 11:55:41;;;;;;;;;;;;;;;12.21;100.00;99124.31;4808088;29;20230;-68
2022/01/02 11:58:08;;;;;;;;;;;;;;;12.07;100.00;99118.59;4806759;29;19933;-68
2022/01/02 12:00:37;;;;;;;;;;;;;;;11.93;100.00;99112.88;4795374;29;19938;-68
2022/01/02 12:03:04;;;;;;;;;;;;;;;12.05;100.00;99115.41;4820802;29;20386;-68
2022/01/02 12:05:32;;;;;;;;;;;;;;;12.21;100.00;99113.09;4825388;29;19928;-68
2022/01/02 12:08:00;;;;;;;;;;;;;;;12.29;100.00;99108.34;4820043;29;19929;-68
2022/01/02 12:10:31;;;;;;;;;;;;;;;12.08;100.00;99099.78;4819449;29;20223;-68
2022/01/02 12:13:05;;;;;;;;;;;;;;;12.01;100.00;99102.50;4808824;29;19936;-69
2022/01/02 12:15:33;;;;;;;;;;;;;;;11.87;100.00;99092.00;4805462;29;19936;-69
2022/01/02 12:18:11;;;;;;;;;;;;;;;11.72;100.00;99087.47;4808611;29;19940;-69
2022/01/02 12:20:50;;;;;;;;;;;;;;;11.70;100.00;99079.44;4818129;29;19933;-69
2022/01/02 12:23:29;;;;;;;;;;;;;;;11.93;100.00;99087.66;4824894;29;20239;-69
2022/01/02 12:26:01;;;;;;;;;;;;;;;11.93;100.00;99082.06;4816987;29;19933;-69
2022/01/02 12:28:36;;;;;;;;;;;;;;;11.82;100.00;99081.97;4821258;29;19940;-69
2022/01/02 12:31:05;;;;;;;;;;;;;;;11.70;100.00;99075.84;4811510;29;19933;-69
2022/01/02 12:33:35;;;;;;;;;;;;;;;11.31;100.00;99088.63;4806747;29;19936;-69
2022/01/02 12:36:17;;;;;;;;;;;;;;;11.26;100.00;99081.38;4803355;29;19936;-69
2022/01/02 12:38:54;;;;;;;;;;;;;;;11.03;100.00;99077.88;4809612;29;19933;-69
2022/01/02 12:44:34;;;;;;;;;;;;;;;10.74;100.00;99070.34;4803932;29;20341;-68
2022/01/02 12:47:03;;;;;;;;;;;;;;;10.57;100.00;99071.72;4808596;29;19933;-69
2022/01/02 12:49:32;;;;;;;;;;;;;;;10.37;100.00;99064.66;4822561;29;19929;-69
2022/01/02 12:52:02;;;;;;;;;;;;;;;10.24;100.00;99054.88;4810273;29;19940;-69
2022/01/02 12:54:31;;;;;;;;;;;;;;;10.16;100.00;99055.97;4803502;29;19933;-69
2022/01/02 12:57:00;;;;;;;;;;;;;;;10.12;100.00;99053.13;4792210;29;19940;-69
2022/01/02 12:59:28;;;;;;;;;;;;;;;10.03;100.00;99055.34;4809492;29;19933;-70
2022/01/02 13:01:56;;;;;;;;;;;;;;;10.12;100.00;99060.69;4806730;29;19944;-70
2022/01/02 13:04:25;;;;;;;;;;;;;;;9.92;100.00;99048.78;4805840;29;19950;-69
2022/01/02 13:06:53;;;;;;;;;;;;;;;9.89;100.00;99052.31;4805612;29;19937;-70
2022/01/02 13:09:21;;;;;;;;;;;;;;;9.83;100.00;99051.00;4813911;29;19937;-69
2022/01/02 13:11:49;;;;;;;;;;;;;;;9.88;100.00;99050.69;4804998;29;19946;-71
2022/01/02 13:14:40;;;;;;;;;;;;;;;9.84;100.00;99049.84;4790823;29;19933;-71
2022/01/02 13:17:10;;;;;;;;;;;;;;;9.90;100.00;99043.56;4805738;29;19940;-69
2022/01/02 13:19:39;;;;;;;;;;;;;;;10.00;100.00;99046.91;4810669;29;19933;-69
2022/01/02 13:22:07;;;;;;;;;;;;;;;9.70;100.00;99032.88;4806200;29;19937;-70
2022/01/02 13:24:36;;;;;;;;;;;;;;;9.96;100.00;99041.25;4806184;29;19964;-70
2022/01/02 13:27:04;;;;;;;;;;;;;;;9.80;100.00;99032.25;4814211;29;19929;-72
2022/01/02 13:29:33;;;;;;;;;;;;;;;9.87;100.00;99038.75;4804444;29;19940;-68
2022/01/02 13:32:17;;;;;;;;;;;;;;;9.68;100.00;99030.44;4802557;29;19952;-69
2022/01/02 13:34:56;;;;;;;;;;;;;;;9.64;100.00;99031.56;4802496;29;20293;-69
2022/01/02 13:37:29;;;;;;;;;;;;;;;9.65;100.00;99030.38;4803459;29;20235;-70
2022/01/02 13:39:57;;;;;;;;;;;;;;;9.56;100.00;99032.66;4814000;29;20334;-69
2022/01/02 13:42:40;;;;;;;;;;;;;;;9.58;100.00;99036.69;4817304;29;19933;-69
2022/01/02 13:45:18;;;;;;;;;;;;;;;9.53;100.00;99025.00;4805008;29;19960;-69
2022/01/02 13:48:05;;;;;;;;;;;;;;;9.27;100.00;99015.38;4805785;29;19938;-68
2022/01/02 13:50:37;;;;;;;;;;;;;;;9.17;100.00;99010.41;4807032;29;19929;-69
2022/01/02 13:53:14;;;;;;;;;;;;;;;9.09;100.00;99002.31;4805859;29;19957;-69
2022/01/02 13:55:43;;;;;;;;;;;;;;;9.11;100.00;98999.94;4805634;29;19933;-69
2022/01/02 13:58:17;;;;;;;;;;;;;;;8.99;100.00;98992.56;4800394;29;19940;-69
2022/01/02 14:00:46;;;;;;;;;;;;;;;9.00;100.00;98990.56;4805440;29;19940;-70
2022/01/02 14:03:32;;;;;;;;;;;;;;;8.93;100.00;98998.81;4821405;29;20230;-69
2022/01/02 14:06:04;;;;;;;;;;;;;;;8.88;100.00;98991.56;4822526;29;19939;-70
2022/01/02 14:08:41;;;;;;;;;;;;;;;8.81;100.00;98985.03;4820771;29;19933;-70
2022/01/02 14:11:11;;;;;;;;;;;;;;;8.91;100.00;98976.88;4811359;29;19940;-68
2022/01/02 14:13:44;;;;;;;;;;;;;;;8.86;100.00;98982.75;4809660;29;19929;-68
2022/01/02 14:16:32;;;;;;;;;;;;;;;8.86;100.00;98977.19;4820014;29;20315;-69
2022/01/02 14:19:00;;;;;;;;;;;;;;;8.89;100.00;98972.84;4809759;29;19933;-69
2022/01/02 14:21:27;;;;;;;;;;;;;;;8.99;100.00;98963.88;4809421;29;19937;-69
2022/01/02 14:23:55;;;;;;;;;;;;;;;8.95;100.00;98963.00;4808765;29;19940;-69
2022/01/02 14:26:23;;;;;;;;;;;;;;;8.91;100.00;98967.69;4809499;29;19929;-69
2022/01/02 14:28:54;;;;;;;;;;;;;;;8.92;100.00;98963.75;4809352;29;19985;-69
2022/01/02 14:31:21;;;;;;;;;;;;;;;8.99;100.00;98961.06;4820735;29;19952;-69
2022/01/02 14:33:51;;;;;;;;;;;;;;;8.92;100.00;98952.59;4819385;29;19953;-69
2022/01/02 14:36:18;;;;;;;;;;;;;;;8.95;100.00;98951.84;4808699;29;19956;-69
2022/01/02 14:38:48;;;;;;;;;;;;;;;9.09;100.00;98952.91;4808313;29;19957;-69
2022/01/02 14:41:17;;;;;;;;;;;;;;;9.05;100.00;98957.59;4806896;29;19952;-69
2022/01/02 14:43:45;;;;;;;;;;;;;;;9.04;100.00;98953.22;4820100;29;19970;-69
2022/01/02 14:46:12;;;;;;;;;;;;;;;9.02;100.00;98960.34;4825948;29;19953;-69
2022/01/02 14:48:40;;;;;;;;;;;;;;;9.07;100.00;98968.41;4827029;29;19985;-69
2022/01/02 14:51:07;;;;;;;;;;;;;;;9.10;100.00;98964.84;4826854;29;19954;-69
2022/01/02 14:53:41;;;;;;;;;;;;;;;9.14;100.00;98960.16;4826420;29;20264;-69
2022/01/02 14:56:08;;;;;;;;;;;;;;;9.17;100.00;98967.75;4824626;29;19989;-71
2022/01/02 14:58:36;;;;;;;;;;;;;;;9.18;100.00;98972.97;4830953;29;19963;-72
2022/01/02 15:01:04;;;;;;;;;;;;;;;9.12;100.00;98973.69;4836745;29;19965;-70
2022/01/02 15:03:32;;;;;;;;;;;;;;;9.10;100.00;98970.44;4843921;29;19982;-69
2022/01/02 15:06:00;;;;;;;;;;;;;;;9.04;100.00;98971.94;4831447;29;20330;-69
2022/01/02 15:08:27;;;;;;;;;;;;;;;9.07;100.00;98971.97;4840810;29;19965;-69
2022/01/02 15:10:55;;;;;;;;;;;;;;;9.03;100.00;98971.13;4837544;29;19977;-69
2022/01/02 15:13:22;;;;;;;;;;;;;;;8.97;100.00;98974.59;4841413;29;19950;-69
2022/01/02 15:15:49;;;;;;;;;;;;;;;8.92;100.00;98980.47;4840742;29;19957;-69
2022/01/02 15:18:17;;;;;;;;;;;;;;;8.94;100.00;98990.09;4835952;29;20348;-69
2022/01/02 15:20:44;;;;;;;;;;;;;;;8.91;100.00;99001.97;4830956;29;19951;-69
2022/01/02 15:23:12;;;;;;;;;;;;;;;8.95;100.00;99002.06;4834582;29;20593;-70
2022/01/02 15:25:39;;;;;;;;;;;;;;;8.92;100.00;99008.38;4837288;29;19956;-69
2022/01/02 15:28:06;;;;;;;;;;;;;;;8.95;100.00;99004.84;4844801;29;19951;-74
2022/01/02 15:30:34;;;;;;;;;;;;;;;8.88;100.00;99010.25;4838976;29;20003;-71
2022/01/02 15:33:02;;;;;;;;;;;;;;;8.80;100.00;99003.75;4821916;29;19964;-71
2022/01/02 15:35:31;;;;;;;;;;;;;;;8.65;100.00;99009.41;4828668;29;20313;-77
2022/01/02 15:37:58;;;;;;;;;;;;;;;8.46;100.00;98999.88;4837752;29;20345;-74
2022/01/02 15:40:25;;;;;;;;;;;;;;;8.27;100.00;98988.72;4837067;29;19957;-69
2022/01/02 15:42:53;;;;;;;;;;;;;;;8.16;100.00;98998.81;4823902;29;19978;-68
2022/01/02 15:45:20;;;;;;;;;;;;;;;8.05;100.00;99003.34;4829659;29;19959;-69
2022/01/02 15:47:50;;;;;;;;;;;;;;;7.89;100.00;99027.66;4831563;29;19956;-69
2022/01/02 15:50:18;;;;;;;;;;;;;;;7.46;100.00;99031.38;4834309;29;19976;-69
2022/01/02 15:52:46;;;;;;;;;;;;;;;7.12;100.00;99030.09;4838137;29;19964;-68
2022/01/02 15:55:14;;;;;;;;;;;;;;;6.95;100.00;99036.00;4842898;29;19976;-69
2022/01/02 15:57:41;;;;;;;;;;;;;;;6.73;100.00;99042.13;4831903;29;19948;-69
2022/01/02 16:00:11;;;;;;;;;;;;;;;6.55;100.00;99030.50;4817678;29;19989;-69
2022/01/02 16:02:38;;;;;;;;;;;;;;;6.47;100.00;99036.22;4832544;29;19961;-69
2022/01/02 16:05:06;;;;;;;;;;;;;;;6.42;100.00;99034.50;4843903;29;19961;-69
2022/01/02 16:07:33;;;;;;;;;;;;;;;6.39;100.00;99038.00;4830087;29;20363;-68
2022/01/02 16:10:01;;;;;;;;;;;;;;;6.26;100.00;99043.94;4838207;29;19974;-69
2022/01/02 16:12:28;;;;;;;;;;;;;;;6.23;100.00;99034.34;4841936;29;19964;-68
2022/01/02 16:14:56;;;;;;;;;;;;;;;6.29;100.00;99037.66;4831443;29;19952;-68
2022/01/02 16:17:23;;;;;;;;;;;;;;;6.32;100.00;99036.97;4826698;29;19959;-68
2022/01/02 16:19:50;;;;;;;;;;;;;;;6.38;100.00;99027.25;4837676;29;20355;-69
2022/01/02 16:22:19;;;;;;;;;;;;;;;6.35;100.00;99020.44;4836132;29;19949;-68
2022/01/02 16:24:46;;;;;;;;;;;;;;;6.30;100.00;99023.44;4826269;29;19957;-68
2022/01/02 16:27:14;;;;;;;;;;;;;;;6.23;100.00;99033.53;4823590;29;20291;-68
2022/01/02 16:29:41;;;;;;;;;;;;;;;6.16;100.00;99049.97;4821864;29;19970;-68
2022/01/02 16:32:09;;;;;;;;;;;;;;;6.22;100.00;99048.56;4830392;29;19966;-66
2022/01/02 16:34:36;;;;;;;;;;;;;;;6.21;100.00;99049.75;4821754;29;19989;-68
2022/01/02 16:37:03;;;;;;;;;;;;;;;6.15;100.00;99045.56;4817813;29;20369;-70
2022/01/02 16:39:31;;;;;;;;;;;;;;;6.13;100.00;99039.56;4834875;29;19948;-66
2022/01/02 16:41:59;;;;;;;;;;;;;;;6.11;100.00;99039.13;4839835;29;19967;-67
2022/01/02 16:44:26;;;;;;;;;;;;;;;6.09;100.00;99041.44;4819658;29;19979;-68
2022/01/02 16:46:53;;;;;;;;;;;;;;;6.10;100.00;99040.25;4831339;29;19948;-68
2022/01/02 16:49:21;;;;;;;;;;;;;;;6.18;100.00;99047.66;4825351;29;19952;-68
2022/01/02 16:51:48;;;;;;;;;;;;;;;6.15;100.00;99049.16;4828053;29;19962;-68
2022/01/02 16:54:15;;;;;;;;;;;;;;;6.16;100.00;99041.66;4827904;29;19984;-68
2022/01/02 16:56:43;;;;;;;;;;;;;;;6.19;100.00;99043.72;4828330;29;20247;-68
2022/01/02 16:59:10;;;;;;;;;;;;;;;6.06;100.00;99039.38;4841778;29;20401;-68
2022/01/02 17:01:37;;;;;;;;;;;;;;;6.11;100.00;99047.44;4825619;29;19963;-68
2022/01/02 17:04:05;;;;;;;;;;;;;;;6.21;100.00;99053.31;4829404;29;19965;-68
2022/01/02 17:06:32;;;;;;;;;;;;;;;6.35;100.00;99061.28;4831463;29;19955;-68
2022/01/02 17:09:00;;;;;;;;;;;;;;;6.25;100.00;99058.97;4827581;29;19958;-68
2022/01/02 17:11:27;;;;;;;;;;;;;;;6.24;100.00;99058.16;4819529;29;19976;-68
2022/01/02 17:13:54;;;;;;;;;;;;;;;6.25;100.00;99059.78;4829790;29;19952;-68
2022/01/02 17:16:22;;;;;;;;;;;;;;;6.32;100.00;99059.19;4828813;29;19953;-68
2022/01/02 17:18:50;;;;;;;;;;;;;;;6.32;100.00;99045.31;4831005;29;19953;-68
2022/01/02 17:21:17;;;;;;;;;;;;;;;6.36;100.00;99044.25;4834510;29;19956;-68
2022/01/02 17:23:45;;;;;;;;;;;;;;;6.40;100.00;99047.13;4836866;29;19982;-69
2022/01/02 17:26:12;;;;;;;;;;;;;;;6.43;100.00;99043.66;4830074;29;20197;-68
2022/01/02 17:28:40;;;;;;;;;;;;;;;6.47;100.00;99045.38;4834423;29;20269;-68
2022/01/02 17:31:07;;;;;;;;;;;;;;;6.42;100.00;99042.03;4827435;29;19970;-68
2022/01/02 17:33:35;;;;;;;;;;;;;;;6.45;100.00;99052.44;4828609;29;19956;-68
2022/01/02 17:36:03;;;;;;;;;;;;;;;6.49;100.00;99042.22;4827801;29;19953;-68
2022/01/02 17:38:30;;;;;;;;;;;;;;;6.56;100.00;99036.88;4837277;29;19957;-68
2022/01/02 17:40:57;;;;;;;;;;;;;;;6.57;100.00;99041.28;4833642;29;19963;-68
2022/01/02 17:43:25;;;;;;;;;;;;;;;6.56;100.00;99034.09;4843717;29;19978;-68
2022/01/02 17:45:52;;;;;;;;;;;;;;;6.57;100.00;99019.88;4831149;29;20251;-68
2022/01/02 17:48:19;;;;;;;;;;;;;;;6.74;100.00;99013.19;4835782;29;20534;-68
2022/01/02 17:50:47;;;;;;;;;;;;;;;6.61;100.00;99017.19;4831180;29;19979;-68
2022/01/02 17:53:14;;;;;;;;;;;;;;;6.63;100.00;99024.00;4831413;29;19963;-69
2022/01/02 17:55:42;;;;;;;;;;;;;;;6.62;100.00;99021.59;4826534;29;19953;-68
2022/01/02 17:58:09;;;;;;;;;;;;;;;6.70;100.00;99023.38;4825394;29;19965;-68
2022/01/02 18:00:36;;;;;;;;;;;;;;;6.79;100.00;99023.25;4839707;29;20237;-68
2022/01/02 18:03:04;;;;;;;;;;;;;;;6.72;100.00;99023.84;4837010;29;19952;-68
2022/01/02 18:05:31;;;;;;;;;;;;;;;6.55;100.00;99019.41;4831152;29;19971;-68
2022/01/02 18:07:58;;;;;;;;;;;;;;;6.50;100.00;99016.09;4831098;29;20258;-68
2022/01/02 18:10:26;;;;;;;;;;;;;;;6.51;100.00;99017.69;4843990;29;19996;-68
2022/01/02 18:12:53;;;;;;;;;;;;;;;6.49;100.00;99031.94;4831297;29;19960;-68
2022/01/02 18:15:22;;;;;;;;;;;;;;;6.63;100.00;99026.78;4827190;29;20368;-68
2022/01/02 18:17:53;;;;;;;;;;;;;;;6.61;100.00;99034.66;4833085;29;19972;-68
2022/01/02 18:20:22;;;;;;;;;;;;;;;6.65;100.00;99042.31;4826419;29;19956;-68
2022/01/02 18:22:50;;;;;;;;;;;;;;;6.73;100.00;99030.19;4835022;29;19959;-68
2022/01/02 18:25:18;;;;;;;;;;;;;;;6.79;100.00;99026.84;4833357;29;20210;-67
2022/01/02 18:27:47;;;;;;;;;;;;;;;6.81;100.00;99021.72;4826916;29;19964;-67
2022/01/02 18:30:16;;;;;;;;;;;;;;;6.94;100.00;99025.25;4824253;29;20011;-68
2022/01/02 18:32:44;;;;;;;;;;;;;;;6.94;100.00;99036.38;4828968;29;20361;-67
2022/01/02 18:35:11;;;;;;;;;;;;;;;6.99;100.00;99041.66;4829344;29;19962;-67
2022/01/02 18:37:40;;;;;;;;;;;;;;;7.09;100.00;99035.59;4824339;29;19965;-67
2022/01/02 18:40:09;;;;;;;;;;;;;;;7.08;100.00;99029.22;4827372;29;19952;-68
2022/01/02 18:42:37;;;;;;;;;;;;;;;7.08;100.00;99031.19;4822545;29;19979;-68
2022/01/02 18:45:05;;;;;;;;;;;;;;;7.05;100.00;99029.91;4824369;29;19963;-68
2022/01/02 18:47:33;;;;;;;;;;;;;;;7.08;100.00;99023.66;4828055;29;20684;-68
2022/01/02 18:50:00;;;;;;;;;;;;;;;7.08;100.00;99020.88;4838965;29;20350;-68
2022/01/02 18:52:27;;;;;;;;;;;;;;;7.13;100.00;99025.34;4828147;29;19992;-68
2022/01/02 18:54:55;;;;;;;;;;;;;;;7.22;100.00;99021.22;4818666;29;19958;-69
2022/01/02 18:57:22;;;;;;;;;;;;;;;7.19;100.00;99015.56;4825626;29;19955;-68
2022/01/02 18:59:50;;;;;;;;;;;;;;;7.17;100.00;99020.69;4826024;29;19966;-68
2022/01/02 19:02:23;;;;;;;;;;;;;;;7.19;100.00;99033.06;4821894;29;19964;-68
2022/01/02 19:04:51;;;;;;;;;;;;;;;7.29;100.00;99034.50;4826911;29;19965;-68
2022/01/02 19:07:20;;;;;;;;;;;;;;;7.27;100.00;99039.63;4823235;29;19952;-69
2022/01/02 19:09:48;;;;;;;;;;;;;;;7.32;100.00;99035.75;4826487;29;19959;-69
2022/01/02 19:12:17;;;;;;;;;;;;;;;7.33;100.00;99042.94;4825968;29;20373;-69
2022/01/02 19:14:45;;;;;;;;;;;;;;;7.31;100.00;99042.50;4828839;29;19955;-69
2022/01/02 19:17:13;;;;;;;;;;;;;;;7.33;100.00;99045.75;4832286;29;19955;-69
2022/01/02 19:19:43;;;;;;;;;;;;;;;7.36;100.00;99045.03;4826860;29;19951;-69
2022/01/02 19:22:20;;;;;;;;;;;;;;;7.36;100.00;99036.69;4825655;29;20211;-69
2022/01/02 19:24:49;;;;;;;;;;;;;;;7.36;100.00;99040.25;4817221;29;20366;-69
2022/01/02 19:27:20;;;;;;;;;;;;;;;7.34;100.00;99033.41;4828832;29;19966;-69
2022/01/02 19:29:49;;;;;;;;;;;;;;;7.32;100.00;99036.56;4831763;29;19962;-69